Villa Krause, Argentina
Current Conditions -  °F | °C
As of 10:00 AM on Monday 20 Oct 2014 (Local Time) from SAME Reporting Station
Clear Clear  
Wind Chill: 68°   Ceiling: Unl
Heat Index: 68°   Visibility: 6mi
Dew Point: 41°   Wind: 0mph
Humidity: 37%   Direction: NA
Pressure: 30.03"   Gusts: NA
Location:  31.57°S, 68.53°W
Report Text: SAME 201300Z 00000KT CAVOK 20/05 Q1017
Loading
Personal Weather Stations






























Interactive Weather Map New forecast layout! Learn more

10-Day Weather Forecast

Advertisements
Track Severe Weather on mobile